createdAt,value
2022-07-29T00:01:08.863Z,71.95
2022-07-29T00:03:46.858Z,72.34
2022-07-29T00:06:14.726Z,72.20
2022-07-29T00:08:41.833Z,72.50
2022-07-29T00:11:08.908Z,72.68
2022-07-29T00:13:36.032Z,73.06
2022-07-29T00:16:04.481Z,73.05
2022-07-29T00:18:33.170Z,73.18
2022-07-29T00:21:00.750Z,73.38
2022-07-29T00:23:28.006Z,73.54
2022-07-29T00:25:55.041Z,73.28
2022-07-29T00:28:22.062Z,72.98
2022-07-29T00:30:49.161Z,73.12
2022-07-29T00:33:16.258Z,73.52
2022-07-29T00:35:46.337Z,73.06
2022-07-29T00:38:15.610Z,73.07
2022-07-29T00:40:43.976Z,73.32
2022-07-29T00:43:12.892Z,73.54
2022-07-29T00:45:39.975Z,73.31
2022-07-29T00:48:09.786Z,73.50
2022-07-29T00:50:38.073Z,73.67
2022-07-29T00:53:07.921Z,73.48
2022-07-29T00:55:35.445Z,73.84
2022-07-29T00:58:02.778Z,73.99
2022-07-29T01:00:30.554Z,73.76
2022-07-29T01:02:57.791Z,73.81
2022-07-29T01:05:50.710Z,74.00
2022-07-29T01:08:16.583Z,73.75
2022-07-29T01:10:45.620Z,73.79
2022-07-29T01:13:13.654Z,73.79
2022-07-29T01:15:50.784Z,73.71
2022-07-29T01:18:23.574Z,73.95
2022-07-29T01:21:29.781Z,74.06
2022-07-29T01:24:31.447Z,73.96
2022-07-29T01:27:36.794Z,73.61
2022-07-29T01:30:05.438Z,73.68
2022-07-29T01:32:38.504Z,73.66
2022-07-29T01:35:21.978Z,73.38
2022-07-29T01:38:02.841Z,73.22
2022-07-29T01:40:29.946Z,72.86
2022-07-29T01:42:59.432Z,73.04
2022-07-29T01:45:38.292Z,73.00
2022-07-29T01:48:11.703Z,72.69
2022-07-29T01:50:51.816Z,72.71
2022-07-29T01:53:43.853Z,72.81
2022-07-29T01:56:13.484Z,72.68
2022-07-29T01:58:42.882Z,72.66
2022-07-29T02:01:11.129Z,72.41
2022-07-29T02:03:40.626Z,72.28
2022-07-29T02:06:10.573Z,72.38
2022-07-29T02:08:40.211Z,72.68
2022-07-29T02:11:09.611Z,72.48
2022-07-29T02:13:38.745Z,72.55
2022-07-29T02:16:08.646Z,72.68
2022-07-29T02:18:38.793Z,72.63
2022-07-29T02:21:06.442Z,72.55
2022-07-29T02:23:50.458Z,72.94
2022-07-29T02:26:21.701Z,73.02
2022-07-29T02:28:51.491Z,72.97
2022-07-29T02:31:23.135Z,72.84
2022-07-29T02:33:53.017Z,72.94
2022-07-29T02:36:23.291Z,72.84
2022-07-29T02:38:51.472Z,73.36
2022-07-29T02:41:27.501Z,72.99
2022-07-29T02:44:04.974Z,73.39
2022-07-29T02:46:39.137Z,73.61
2022-07-29T02:49:28.323Z,73.26
2022-07-29T02:52:13.622Z,73.62
2022-07-29T02:54:47.379Z,73.57
2022-07-29T02:57:56.296Z,73.19
2022-07-29T03:00:28.612Z,72.94
2022-07-29T03:02:59.862Z,72.71
2022-07-29T03:05:27.893Z,72.81
2022-07-29T03:08:02.974Z,72.73
2022-07-29T03:10:31.381Z,73.08
2022-07-29T03:12:59.333Z,73.36
2022-07-29T03:15:27.134Z,73.53
2022-07-29T03:17:55.118Z,73.56
2022-07-29T03:20:22.460Z,73.65
2022-07-29T03:22:50.460Z,73.93
2022-07-29T03:25:20.417Z,74.06
2022-07-29T03:27:49.311Z,74.24
2022-07-29T03:30:21.995Z,73.91
2022-07-29T03:32:52.075Z,74.18
2022-07-29T03:35:23.777Z,73.90
2022-07-29T03:37:51.250Z,74.15
2022-07-29T03:40:27.218Z,74.49
2022-07-29T03:42:56.477Z,74.17
2022-07-29T03:45:25.574Z,73.90
2022-07-29T03:48:01.526Z,74.08
2022-07-29T03:50:31.418Z,73.99
2022-07-29T03:52:58.897Z,74.23
2022-07-29T03:55:27.634Z,73.79
2022-07-29T03:57:57.098Z,74.02
2022-07-29T04:00:26.897Z,73.98
2022-07-29T04:02:54.060Z,74.30
2022-07-29T04:05:21.155Z,74.17
2022-07-29T04:07:49.270Z,74.10
2022-07-29T04:10:25.234Z,74.18
2022-07-29T04:12:59.337Z,73.79
2022-07-29T04:15:26.534Z,73.80
2022-07-29T04:17:59.511Z,74.08
2022-07-29T04:20:26.945Z,73.55
2022-07-29T04:22:54.114Z,73.74
2022-07-29T04:25:21.290Z,73.95
2022-07-29T04:28:03.347Z,73.69
2022-07-29T04:30:32.196Z,73.79
2022-07-29T04:32:59.849Z,73.35
2022-07-29T04:35:27.061Z,73.28
2022-07-29T04:37:54.347Z,73.34
2022-07-29T04:40:21.700Z,73.14
2022-07-29T04:42:49.541Z,73.07
2022-07-29T04:45:16.897Z,73.35
2022-07-29T04:47:50.253Z,73.52
2022-07-29T04:50:17.822Z,72.86
2022-07-29T04:52:45.147Z,73.00
2022-07-29T04:55:12.382Z,72.83
2022-07-29T04:57:39.411Z,72.43
2022-07-29T05:00:07.919Z,72.74
2022-07-29T05:02:35.248Z,72.39
2022-07-29T05:05:02.412Z,72.20
2022-07-29T05:07:29.575Z,72.42
2022-07-29T05:09:58.171Z,71.82
2022-07-29T05:12:25.931Z,71.77
2022-07-29T05:14:53.514Z,71.98
2022-07-29T05:17:20.566Z,72.21
2022-07-29T05:19:47.612Z,71.73
2022-07-29T05:22:14.661Z,71.73
2022-07-29T05:24:42.003Z,71.81
2022-07-29T05:27:09.052Z,71.66
2022-07-29T05:29:44.088Z,71.41
2022-07-29T05:32:14.053Z,71.42
2022-07-29T05:34:50.353Z,71.23
2022-07-29T05:37:20.862Z,70.66
2022-07-29T05:39:50.363Z,70.77
2022-07-29T05:42:24.135Z,70.38
2022-07-29T05:44:51.230Z,70.53
2022-07-29T05:47:18.348Z,70.38
2022-07-29T05:49:45.507Z,70.24
2022-07-29T05:52:14.353Z,69.72
2022-07-29T05:54:41.947Z,69.83
2022-07-29T05:57:09.044Z,69.72
2022-07-29T05:59:39.307Z,69.80
2022-07-29T06:02:06.475Z,69.50
2022-07-29T06:04:34.794Z,69.19
2022-07-29T06:07:02.921Z,68.71
2022-07-29T06:09:30.494Z,68.51
2022-07-29T06:11:59.104Z,68.07
2022-07-29T06:14:27.860Z,67.85
2022-07-29T06:16:55.261Z,67.16
2022-07-29T06:19:22.758Z,66.72
2022-07-29T06:21:49.920Z,66.19
2022-07-29T06:24:17.566Z,65.73
2022-07-29T06:26:45.060Z,65.17
2022-07-29T06:29:12.284Z,64.78
2022-07-29T06:31:40.295Z,64.66
2022-07-29T06:34:07.802Z,64.23
2022-07-29T06:36:39.735Z,62.97
2022-07-29T06:39:09.178Z,62.88
2022-07-29T06:41:36.745Z,62.54
2022-07-29T06:44:10.312Z,61.88
2022-07-29T06:46:37.720Z,61.44
2022-07-29T06:49:05.645Z,61.14
2022-07-29T06:51:32.824Z,60.37
2022-07-29T06:54:02.783Z,60.01
2022-07-29T06:56:38.141Z,59.23
2022-07-29T06:59:08.196Z,59.09
2022-07-29T07:01:37.131Z,57.59
2022-07-29T07:04:04.325Z,57.70
2022-07-29T07:06:31.386Z,56.74
2022-07-29T07:08:58.860Z,55.96
2022-07-29T07:11:26.000Z,55.20
2022-07-29T07:13:53.172Z,55.32
2022-07-29T07:16:20.387Z,54.99
2022-07-29T07:18:47.561Z,54.09
2022-07-29T07:21:18.891Z,53.54
2022-07-29T07:23:47.538Z,53.92
2022-07-29T07:26:15.899Z,52.27
2022-07-29T07:28:43.195Z,52.41
2022-07-29T07:31:10.796Z,52.06
2022-07-29T07:33:37.901Z,51.54
2022-07-29T07:36:05.257Z,51.41
2022-07-29T07:38:32.504Z,51.10
2022-07-29T07:41:00.135Z,50.49
2022-07-29T07:43:27.185Z,50.27
2022-07-29T07:45:54.372Z,50.07
2022-07-29T07:48:21.905Z,49.46
2022-07-29T07:50:50.511Z,49.34
2022-07-29T07:53:17.967Z,48.96
2022-07-29T07:56:09.282Z,48.53
2022-07-29T07:58:32.535Z,47.96
2022-07-29T08:00:59.686Z,47.68
2022-07-29T08:03:27.539Z,47.92
2022-07-29T08:05:55.456Z,47.21
2022-07-29T08:08:22.681Z,47.04
2022-07-29T08:11:02.143Z,46.42
2022-07-29T08:13:33.255Z,46.38
2022-07-29T08:16:02.847Z,46.05
2022-07-29T08:18:32.090Z,45.28
2022-07-29T08:21:00.002Z,44.56
2022-07-29T08:23:45.501Z,44.11
2022-07-29T08:26:14.845Z,43.77
2022-07-29T08:28:47.207Z,43.72
2022-07-29T08:31:15.178Z,44.47
2022-07-29T08:33:43.112Z,44.44
2022-07-29T08:36:10.837Z,44.92
2022-07-29T08:38:38.260Z,44.87
2022-07-29T08:41:05.781Z,44.48
2022-07-29T08:43:33.498Z,44.53
2022-07-29T08:46:01.937Z,42.91
2022-07-29T08:48:29.184Z,42.82
2022-07-29T08:50:57.809Z,42.29
2022-07-29T08:53:27.936Z,42.06
2022-07-29T08:55:55.817Z,42.59
2022-07-29T08:58:25.253Z,42.46
2022-07-29T09:00:56.088Z,42.71
2022-07-29T09:03:26.917Z,43.37
2022-07-29T09:05:54.917Z,42.73
2022-07-29T09:08:22.717Z,42.43
2022-07-29T09:10:50.645Z,42.35
2022-07-29T09:13:17.817Z,42.88
2022-07-29T09:15:46.188Z,43.12
2022-07-29T09:18:20.458Z,42.83
2022-07-29T09:21:16.870Z,42.87
2022-07-29T09:24:08.205Z,43.21
2022-07-29T09:26:46.654Z,43.23
2022-07-29T09:29:22.256Z,43.69
2022-07-29T09:31:53.786Z,43.89
2022-07-29T09:34:29.636Z,43.51
2022-07-29T09:36:57.308Z,43.59
2022-07-29T09:39:33.301Z,43.92
2022-07-29T09:42:05.523Z,43.83
2022-07-29T09:44:50.305Z,43.03
2022-07-29T09:47:19.870Z,42.89
2022-07-29T09:49:54.636Z,43.74
2022-07-29T09:52:22.620Z,43.68
2022-07-29T09:54:49.908Z,44.07
2022-07-29T09:57:31.111Z,44.24
2022-07-29T09:59:59.439Z,44.44
2022-07-29T10:02:34.571Z,44.48
2022-07-29T10:05:04.624Z,43.75
2022-07-29T10:07:53.954Z,43.69
2022-07-29T10:10:26.371Z,43.55
2022-07-29T10:13:01.871Z,42.85
2022-07-29T10:15:39.665Z,43.11
2022-07-29T10:18:07.912Z,43.09
2022-07-29T10:20:35.947Z,42.87
2022-07-29T10:23:03.828Z,43.34
2022-07-29T10:25:31.776Z,42.78
2022-07-29T10:27:58.945Z,43.13
2022-07-29T10:30:27.180Z,43.68
2022-07-29T10:32:56.987Z,43.68
2022-07-29T10:35:45.361Z,43.65
2022-07-29T10:38:47.215Z,42.78
2022-07-29T10:42:06.403Z,41.64
2022-07-29T10:44:37.558Z,42.07
2022-07-29T10:47:04.880Z,42.24
2022-07-29T10:49:32.270Z,42.38
2022-07-29T10:52:09.767Z,42.03
2022-07-29T10:54:43.833Z,41.24
2022-07-29T10:57:16.701Z,41.34
2022-07-29T10:59:46.634Z,41.53
2022-07-29T11:02:41.450Z,40.92
2022-07-29T11:05:12.226Z,40.20
2022-07-29T11:07:46.041Z,40.24
2022-07-29T11:10:14.033Z,39.72
2022-07-29T11:12:44.793Z,40.02
2022-07-29T11:15:31.750Z,39.89
2022-07-29T11:18:00.352Z,39.32
2022-07-29T11:20:49.904Z,38.08
2022-07-29T11:23:25.327Z,38.12
2022-07-29T11:26:12.871Z,37.17
2022-07-29T11:28:55.542Z,37.63
2022-07-29T11:31:36.443Z,37.53
2022-07-29T11:34:23.082Z,36.17
2022-07-29T11:37:14.792Z,37.14
2022-07-29T11:39:44.790Z,36.53
2022-07-29T11:45:43.862Z,37.50
2022-07-29T11:48:28.912Z,37.54
2022-07-29T11:50:54.524Z,36.61
2022-07-29T11:53:22.107Z,35.74
2022-07-29T11:55:58.363Z,34.52
2022-07-29T11:58:26.426Z,34.65
2022-07-29T12:03:43.698Z,34.97
2022-07-29T12:06:15.716Z,33.53
2022-07-29T12:07:03.694Z,36.67
2022-07-29T12:08:46.152Z,33.21
2022-07-29T12:11:23.461Z,33.29
2022-07-29T12:13:52.756Z,31.80
2022-07-29T12:16:29.262Z,32.60
2022-07-29T12:19:02.334Z,33.23
2022-07-29T12:21:31.083Z,33.67
2022-07-29T12:24:05.625Z,33.90
2022-07-29T12:26:36.404Z,33.94
2022-07-29T12:29:04.503Z,33.51
2022-07-29T12:31:42.168Z,33.72
2022-07-29T12:34:17.044Z,34.73
2022-07-29T12:36:44.826Z,34.93
2022-07-29T12:39:13.570Z,34.72
2022-07-29T12:41:40.888Z,34.78
2022-07-29T12:44:08.141Z,33.86
2022-07-29T12:46:35.884Z,34.33
2022-07-29T12:49:04.114Z,34.44
2022-07-29T12:51:35.035Z,33.79
2022-07-29T12:54:06.674Z,33.75
2022-07-29T12:56:43.199Z,33.71
2022-07-29T12:59:22.804Z,34.97
2022-07-29T13:01:53.614Z,34.86
2022-07-29T13:04:32.463Z,35.03
2022-07-29T13:07:07.187Z,34.98
2022-07-29T13:09:38.603Z,35.60
2022-07-29T13:12:13.552Z,35.46
2022-07-29T13:14:48.211Z,35.99
2022-07-29T13:17:21.921Z,35.71
2022-07-29T13:19:54.152Z,35.88
2022-07-29T13:22:25.673Z,36.05
2022-07-29T13:24:57.698Z,35.47
2022-07-29T13:27:27.071Z,35.59
2022-07-29T13:29:57.723Z,35.23
2022-07-29T13:32:28.697Z,34.76
2022-07-29T13:35:01.324Z,34.80
2022-07-29T13:37:34.123Z,35.71
2022-07-29T13:40:01.474Z,35.56
2022-07-29T13:42:28.954Z,36.03
2022-07-29T13:44:56.283Z,35.87
2022-07-29T13:47:32.550Z,35.55
2022-07-29T13:50:01.984Z,36.00
2022-07-29T13:52:29.292Z,35.85
2022-07-29T13:54:56.552Z,35.97
2022-07-29T13:57:23.914Z,35.75
2022-07-29T13:59:54.342Z,35.42
2022-07-29T14:02:25.791Z,35.46
2022-07-29T14:04:55.055Z,35.73
2022-07-29T14:07:22.943Z,35.98
2022-07-29T14:09:50.084Z,35.42
2022-07-29T14:12:17.462Z,35.08
2022-07-29T14:14:44.965Z,35.52
2022-07-29T14:17:15.049Z,35.80
2022-07-29T14:19:42.281Z,35.45
2022-07-29T14:22:10.785Z,35.33
2022-07-29T14:24:38.450Z,36.18
2022-07-29T14:27:08.045Z,35.67
2022-07-29T14:29:37.201Z,35.35
2022-07-29T14:32:11.497Z,36.02
2022-07-29T14:34:39.423Z,35.78
2022-07-29T14:37:07.910Z,36.08
2022-07-29T14:39:42.792Z,36.55
2022-07-29T14:42:12.847Z,35.92
2022-07-29T14:44:42.674Z,36.24
2022-07-29T14:47:10.245Z,36.20
2022-07-29T14:49:37.472Z,36.31
2022-07-29T14:52:04.995Z,36.30
2022-07-29T14:54:32.233Z,36.80
2022-07-29T14:56:59.587Z,37.10
2022-07-29T14:59:27.498Z,37.21
2022-07-29T15:01:55.002Z,37.83
2022-07-29T15:04:22.223Z,37.78
2022-07-29T15:06:49.673Z,37.35
2022-07-29T15:09:17.231Z,37.11
2022-07-29T15:11:44.921Z,37.24
2022-07-29T15:14:12.351Z,36.82
2022-07-29T15:16:43.577Z,36.82
2022-07-29T15:19:11.256Z,36.33
2022-07-29T15:21:41.338Z,36.40
2022-07-29T15:24:15.989Z,35.79
2022-07-29T15:26:44.768Z,35.85
2022-07-29T15:29:12.008Z,36.05
2022-07-29T15:31:39.716Z,35.53
2022-07-29T15:34:07.869Z,35.06
2022-07-29T15:36:51.609Z,35.62
2022-07-29T15:39:21.934Z,35.76
2022-07-29T15:41:49.670Z,36.22
2022-07-29T15:44:16.756Z,36.41
2022-07-29T15:47:02.757Z,36.45
2022-07-29T15:49:46.594Z,36.47
2022-07-29T15:52:26.251Z,36.73
2022-07-29T15:54:56.325Z,36.60
2022-07-29T15:57:23.958Z,36.95
2022-07-29T15:59:52.177Z,37.01
2022-07-29T16:02:19.933Z,37.02
2022-07-29T16:04:47.453Z,36.85
2022-07-29T16:07:15.660Z,36.82
2022-07-29T16:09:43.793Z,36.86
2022-07-29T16:12:15.111Z,36.86
2022-07-29T16:14:44.180Z,36.90
2022-07-29T16:17:14.807Z,36.92
2022-07-29T16:19:43.660Z,36.88
2022-07-29T16:22:11.113Z,37.04
2022-07-29T16:24:39.505Z,36.33
2022-07-29T16:27:07.238Z,36.63
2022-07-29T16:29:34.520Z,36.42
2022-07-29T16:32:02.121Z,36.42
2022-07-29T16:34:29.789Z,37.16
2022-07-29T16:36:56.980Z,37.69
2022-07-29T16:39:24.389Z,37.63
2022-07-29T16:41:51.554Z,37.47
2022-07-29T16:44:18.959Z,37.65
2022-07-29T16:46:46.851Z,37.62
2022-07-29T16:49:19.283Z,37.56
2022-07-29T16:51:48.147Z,37.74
2022-07-29T16:54:15.603Z,37.63
2022-07-29T16:56:43.013Z,38.00
2022-07-29T16:59:10.411Z,38.09
2022-07-29T17:01:37.806Z,38.04
2022-07-29T17:04:08.176Z,37.75
2022-07-29T17:06:40.536Z,37.52
2022-07-29T17:09:09.335Z,37.65
2022-07-29T17:11:53.687Z,37.76
2022-07-29T17:14:27.293Z,38.12
2022-07-29T17:17:01.155Z,38.02
2022-07-29T17:19:35.658Z,37.87
2022-07-29T17:22:11.585Z,38.15
2022-07-29T17:24:42.184Z,37.98
2022-07-29T17:27:10.513Z,37.83
2022-07-29T17:29:39.227Z,38.07
2022-07-29T17:32:07.824Z,38.12
2022-07-29T17:34:36.636Z,38.17
2022-07-29T17:37:05.683Z,38.39
2022-07-29T17:39:35.292Z,38.60
2022-07-29T17:42:05.904Z,38.75
2022-07-29T17:44:36.121Z,39.11
2022-07-29T17:47:05.022Z,39.11
2022-07-29T17:49:33.010Z,39.00
2022-07-29T17:52:03.637Z,39.03
2022-07-29T17:54:30.898Z,39.06
2022-07-29T17:56:58.266Z,38.71
2022-07-29T17:59:26.247Z,38.80
2022-07-29T18:01:53.485Z,38.96
2022-07-29T18:04:23.651Z,39.08
2022-07-29T18:06:50.655Z,39.26
2022-07-29T18:09:17.798Z,39.06
2022-07-29T18:11:45.915Z,39.37
2022-07-29T18:14:13.759Z,39.41
2022-07-29T18:16:40.946Z,39.72
2022-07-29T18:19:08.248Z,39.96
2022-07-29T18:21:43.429Z,40.25
2022-07-29T18:24:23.390Z,40.48
2022-07-29T18:26:50.528Z,40.71
2022-07-29T18:29:17.649Z,40.88
2022-07-29T18:31:44.821Z,40.96
2022-07-29T18:34:12.029Z,41.22
2022-07-29T18:36:39.178Z,41.14
2022-07-29T18:39:06.490Z,41.46
2022-07-29T18:41:34.108Z,41.57
2022-07-29T18:44:01.308Z,41.59
2022-07-29T18:46:28.580Z,41.70
2022-07-29T18:48:57.522Z,41.82
2022-07-29T18:51:24.709Z,41.80
2022-07-29T18:53:52.687Z,41.93
2022-07-29T18:56:19.980Z,42.03
2022-07-29T18:58:47.231Z,42.41
2022-07-29T19:01:16.691Z,42.37
2022-07-29T19:03:44.246Z,42.48
2022-07-29T19:06:11.634Z,42.53
2022-07-29T19:08:38.969Z,42.59
2022-07-29T19:11:06.308Z,42.70
2022-07-29T19:13:34.229Z,43.26
2022-07-29T19:16:01.582Z,43.32
2022-07-29T19:18:28.858Z,43.97
2022-07-29T19:20:56.098Z,43.80
2022-07-29T19:23:24.300Z,43.97
2022-07-29T19:25:53.568Z,44.08
2022-07-29T19:28:22.251Z,43.98
2022-07-29T19:30:49.996Z,44.44
2022-07-29T19:33:19.151Z,44.71
2022-07-29T19:35:49.325Z,44.56
2022-07-29T19:38:18.937Z,44.82
2022-07-29T19:40:46.049Z,44.95
2022-07-29T19:43:50.022Z,45.10
2022-07-29T19:46:00.880Z,45.35
2022-07-29T19:48:28.128Z,45.39
2022-07-29T19:50:55.353Z,45.67
2022-07-29T19:53:22.729Z,45.85
2022-07-29T19:55:49.947Z,46.05
2022-07-29T19:58:17.065Z,46.13
2022-07-29T20:00:44.618Z,46.37
2022-07-29T20:03:13.893Z,46.46
2022-07-29T20:05:41.624Z,46.46
2022-07-29T20:08:15.075Z,46.71
2022-07-29T20:10:42.739Z,46.64
2022-07-29T20:13:10.136Z,46.94
2022-07-29T20:15:37.722Z,46.82
2022-07-29T20:18:05.423Z,46.94
2022-07-29T20:20:33.024Z,46.90
2022-07-29T20:23:01.387Z,47.08
2022-07-29T20:25:29.255Z,47.11
2022-07-29T20:27:56.858Z,47.00
2022-07-29T20:30:25.246Z,47.31
2022-07-29T20:32:53.015Z,47.33
2022-07-29T20:35:22.599Z,47.27
2022-07-29T20:37:52.400Z,47.41
2022-07-29T20:40:24.614Z,47.63
2022-07-29T20:42:53.325Z,47.14
2022-07-29T20:45:21.059Z,47.89
2022-07-29T20:47:48.466Z,48.11
2022-07-29T20:50:15.843Z,48.16
2022-07-29T20:52:44.465Z,48.36
2022-07-29T20:55:11.842Z,48.63
2022-07-29T20:57:40.222Z,48.78
2022-07-29T21:00:08.755Z,49.01
2022-07-29T21:02:36.881Z,49.13
2022-07-29T21:05:05.816Z,49.09
2022-07-29T21:07:33.255Z,49.23
2022-07-29T21:10:01.028Z,49.54
2022-07-29T21:12:30.583Z,49.50
2022-07-29T21:14:58.083Z,49.37
2022-07-29T21:17:25.564Z,49.54
2022-07-29T21:19:53.842Z,49.39
2022-07-29T21:22:22.582Z,49.55
2022-07-29T21:24:51.801Z,49.78
2022-07-29T21:27:38.304Z,49.51
2022-07-29T21:30:08.639Z,49.55
2022-07-29T21:32:37.255Z,49.79
2022-07-29T21:35:18.317Z,49.90
2022-07-29T21:37:54.326Z,50.26
2022-07-29T21:40:22.285Z,50.40
2022-07-29T21:42:49.495Z,50.70
2022-07-29T21:45:17.245Z,50.96
2022-07-29T21:47:44.483Z,51.61
2022-07-29T21:50:11.654Z,51.88
2022-07-29T21:52:39.186Z,52.33
2022-07-29T21:55:07.654Z,52.74
2022-07-29T21:57:37.832Z,52.87
2022-07-29T22:00:08.617Z,53.31
2022-07-29T22:02:39.900Z,53.29
2022-07-29T22:05:08.618Z,53.53
2022-07-29T22:07:54.628Z,53.51
2022-07-29T22:10:28.942Z,54.13
2022-07-29T22:12:57.604Z,54.04
2022-07-29T22:15:25.916Z,54.23
2022-07-29T22:17:53.393Z,54.14
2022-07-29T22:20:21.232Z,54.34
2022-07-29T22:22:48.397Z,54.37
2022-07-29T22:25:15.821Z,54.73
2022-07-29T22:27:42.991Z,55.09
2022-07-29T22:30:10.705Z,55.00
2022-07-29T22:32:37.942Z,55.17
2022-07-29T22:35:05.563Z,55.30
2022-07-29T22:37:33.064Z,55.41
2022-07-29T22:40:00.130Z,55.88
2022-07-29T22:42:27.135Z,56.07
2022-07-29T22:44:54.735Z,55.89
2022-07-29T22:47:46.081Z,56.16
2022-07-29T22:50:09.240Z,56.35
2022-07-29T22:52:36.528Z,56.52
2022-07-29T22:55:05.835Z,56.84
2022-07-29T22:57:32.951Z,56.97
2022-07-29T23:00:02.552Z,56.80
2022-07-29T23:02:30.062Z,57.02
2022-07-29T23:04:57.597Z,57.26
2022-07-29T23:07:24.923Z,57.49
2022-07-29T23:09:52.243Z,57.54
2022-07-29T23:12:19.355Z,57.92
2022-07-29T23:14:46.908Z,57.86
2022-07-29T23:17:14.085Z,58.11
2022-07-29T23:19:41.428Z,57.93
2022-07-29T23:22:08.548Z,58.27
2022-07-29T23:24:35.625Z,58.18
2022-07-29T23:27:02.853Z,58.42
2022-07-29T23:29:33.839Z,58.35
2022-07-29T23:32:03.823Z,58.57
2022-07-29T23:34:30.865Z,58.78
2022-07-29T23:36:58.146Z,58.94
2022-07-29T23:39:25.399Z,59.33
2022-07-29T23:41:52.618Z,58.91
2022-07-29T23:44:19.688Z,58.96
2022-07-29T23:46:46.837Z,59.28
2022-07-29T23:49:14.818Z,58.74
2022-07-29T23:51:42.137Z,58.96
2022-07-29T23:54:09.192Z,59.19
2022-07-29T23:56:36.258Z,59.02
2022-07-29T23:59:05.773Z,58.98
